Gilcrest, Colorado
Current Conditions -  °F | °C
As of 12:15 PM on Friday 28 Nov 2014 (Local Time) from KGXY Reporting Station
Clear Clear  
Wind Chill: 11°   Ceiling: Unl
Heat Index: 11°   Visibility: 10mi
Dew Point: -1°   Wind: 8mph
Humidity: 44%   Direction: 160°SSE
Pressure: 29.86"   Gusts: NA
Location:  40.28°N, 104.78°W
Report Text: KGXY 281915Z AUTO 16007KT 10SM CLR 11/M01 A2986 RMK AO1
Loading
Personal Weather Stations






























Interactive Weather Map New forecast layout! Learn more

10-Day Weather Forecast

Advertisements
Track Severe Weather on mobile